createdAt,value
2022-10-09T00:01:02.914Z,12.30
2022-10-09T00:03:30.059Z,10.95
2022-10-09T00:05:57.047Z,17.23
2022-10-09T00:08:24.102Z,13.35
2022-10-09T00:10:51.349Z,11.27
2022-10-09T00:13:18.436Z,12.52
2022-10-09T00:15:46.419Z,13.88
2022-10-09T00:18:16.647Z,11.20
2022-10-09T00:20:46.414Z,10.32
2022-10-09T00:23:16.659Z,13.35
2022-10-09T00:25:56.718Z,9.68
2022-10-09T00:28:25.730Z,19.02
2022-10-09T00:30:53.332Z,10.60
2022-10-09T00:33:22.179Z,9.50
2022-10-09T00:35:49.942Z,12.02
2022-10-09T00:38:16.917Z,9.60
2022-10-09T00:40:44.180Z,9.85
2022-10-09T00:43:16.257Z,23.50
2022-10-09T00:45:54.128Z,13.05
2022-10-09T00:48:21.964Z,11.25
2022-10-09T00:50:57.819Z,19.65
2022-10-09T00:53:27.972Z,9.27
2022-10-09T00:55:55.008Z,19.95
2022-10-09T00:58:23.891Z,12.45
2022-10-09T01:00:50.941Z,14.30
2022-10-09T01:03:17.749Z,21.10
2022-10-09T01:06:28.928Z,19.77
2022-10-09T01:09:14.063Z,18.67
2022-10-09T01:11:58.933Z,12.48
2022-10-09T01:14:29.752Z,12.13
2022-10-09T01:17:25.036Z,17.27
2022-10-09T01:20:23.118Z,11.40
2022-10-09T01:23:02.203Z,11.52
2022-10-09T01:25:41.719Z,10.82
2022-10-09T01:28:10.565Z,15.13
2022-10-09T01:30:38.567Z,11.27
2022-10-09T01:33:06.359Z,12.88
2022-10-09T01:35:33.395Z,9.23
2022-10-09T01:38:02.454Z,10.60
2022-10-09T01:40:29.780Z,11.45
2022-10-09T01:42:58.364Z,11.63
2022-10-09T01:45:37.269Z,14.10
2022-10-09T01:48:04.826Z,10.90
2022-10-09T01:50:35.877Z,11.13
2022-10-09T01:53:10.387Z,16.45
2022-10-09T01:55:58.870Z,10.27
2022-10-09T01:58:48.723Z,14.70
2022-10-09T02:01:19.409Z,7.53
2022-10-09T02:03:49.858Z,13.52
2022-10-09T02:06:19.214Z,14.73
2022-10-09T02:08:50.288Z,11.40
2022-10-09T02:11:17.725Z,13.70
2022-10-09T02:13:46.748Z,12.00
2022-10-09T02:16:19.027Z,14.45
2022-10-09T02:18:49.910Z,16.80
2022-10-09T02:21:23.247Z,10.55
2022-10-09T02:23:51.134Z,13.90
2022-10-09T02:26:19.484Z,12.48
2022-10-09T02:28:46.776Z,10.65
2022-10-09T02:31:25.660Z,9.75
2022-10-09T02:34:00.734Z,8.55
2022-10-09T02:36:28.701Z,10.73
2022-10-09T02:38:55.900Z,9.13
2022-10-09T02:41:23.854Z,9.70
2022-10-09T02:43:51.053Z,9.65
2022-10-09T02:46:18.458Z,9.68
2022-10-09T02:48:45.306Z,9.18
2022-10-09T02:51:12.285Z,10.15
2022-10-09T02:53:39.273Z,10.02
2022-10-09T02:56:06.291Z,11.85
2022-10-09T02:58:35.610Z,9.70
2022-10-09T03:01:03.188Z,11.10
2022-10-09T03:03:30.448Z,7.82
2022-10-09T03:06:10.956Z,10.68
2022-10-09T03:08:40.262Z,12.73
2022-10-09T03:11:07.760Z,8.82
2022-10-09T03:13:34.749Z,11.95
2022-10-09T03:16:06.701Z,9.70
2022-10-09T03:18:33.847Z,13.77
2022-10-09T03:21:00.786Z,14.40
2022-10-09T03:23:28.108Z,11.45
2022-10-09T03:26:04.065Z,12.20
2022-10-09T03:28:31.730Z,11.63
2022-10-09T03:30:58.741Z,9.90
2022-10-09T03:33:25.905Z,11.25
2022-10-09T03:35:52.734Z,7.50
2022-10-09T03:38:19.610Z,12.48
2022-10-09T03:40:46.595Z,12.70
2022-10-09T03:43:13.717Z,16.95
2022-10-09T03:45:42.060Z,11.43
2022-10-09T03:48:13.385Z,10.20
2022-10-09T03:50:40.944Z,11.00
2022-10-09T03:53:09.471Z,9.73
2022-10-09T03:55:39.381Z,15.65
2022-10-09T03:58:07.541Z,10.77
2022-10-09T04:00:35.215Z,15.65
2022-10-09T04:03:02.168Z,13.05
2022-10-09T04:05:32.588Z,11.85
2022-10-09T04:07:59.382Z,10.93
2022-10-09T04:10:26.234Z,11.77
2022-10-09T04:12:53.171Z,15.48
2022-10-09T04:15:20.323Z,10.25
2022-10-09T04:17:47.237Z,12.20
2022-10-09T04:20:14.469Z,17.13
2022-10-09T04:22:41.555Z,18.55
2022-10-09T04:25:09.156Z,12.30
2022-10-09T04:27:36.589Z,17.90
2022-10-09T04:30:05.442Z,10.93
2022-10-09T04:32:32.493Z,15.90
2022-10-09T04:34:59.410Z,15.43
2022-10-09T04:37:26.282Z,14.48
2022-10-09T04:39:53.133Z,19.77
2022-10-09T04:42:20.062Z,10.63
2022-10-09T04:44:46.851Z,12.75
2022-10-09T04:47:13.641Z,19.70
2022-10-09T04:49:40.578Z,10.43
2022-10-09T04:52:07.659Z,11.15
2022-10-09T04:54:34.581Z,10.18
2022-10-09T04:57:01.444Z,8.70
2022-10-09T04:59:28.560Z,12.90
2022-10-09T05:01:55.563Z,9.68
2022-10-09T05:04:22.500Z,13.45
2022-10-09T05:06:49.308Z,14.25
2022-10-09T05:09:17.371Z,7.07
2022-10-09T05:11:44.253Z,8.75
2022-10-09T05:14:11.219Z,14.30
2022-10-09T05:16:55.284Z,19.45
2022-10-09T05:19:25.731Z,10.32
2022-10-09T05:21:52.573Z,11.30
2022-10-09T05:24:19.878Z,15.48
2022-10-09T05:26:46.820Z,13.93
2022-10-09T05:29:13.836Z,19.30
2022-10-09T05:31:40.647Z,9.80
2022-10-09T05:34:07.545Z,12.40
2022-10-09T05:36:34.360Z,13.40
2022-10-09T05:39:01.565Z,15.38
2022-10-09T05:41:29.768Z,15.70
2022-10-09T05:44:01.478Z,11.82
2022-10-09T05:46:30.298Z,8.70
2022-10-09T05:49:05.386Z,13.55
2022-10-09T05:51:37.806Z,6.65
2022-10-09T05:54:06.242Z,10.88
2022-10-09T05:56:36.263Z,15.00
2022-10-09T05:59:09.747Z,13.90
2022-10-09T06:01:40.058Z,15.55
2022-10-09T06:04:11.008Z,11.48
2022-10-09T06:06:40.644Z,11.60
2022-10-09T06:09:10.105Z,13.57
2022-10-09T06:11:39.606Z,16.40
2022-10-09T06:14:08.845Z,14.15
2022-10-09T06:16:38.836Z,14.77
2022-10-09T06:19:07.547Z,14.18
2022-10-09T06:21:34.513Z,12.65
2022-10-09T06:24:03.126Z,11.52
2022-10-09T06:26:30.996Z,13.82
2022-10-09T06:28:59.849Z,21.40
2022-10-09T06:31:32.298Z,16.42
2022-10-09T06:34:01.089Z,18.83
2022-10-09T06:36:30.513Z,21.67
2022-10-09T06:39:00.544Z,15.20
2022-10-09T06:41:29.263Z,12.20
2022-10-09T06:43:58.536Z,17.92
2022-10-09T06:46:28.926Z,13.85
2022-10-09T06:48:56.010Z,12.50
2022-10-09T06:51:25.106Z,13.80
2022-10-09T06:53:54.034Z,14.40
2022-10-09T06:56:22.855Z,15.63
2022-10-09T06:58:50.123Z,16.10
2022-10-09T07:01:27.105Z,15.98
2022-10-09T07:03:56.847Z,9.40
2022-10-09T07:06:29.758Z,18.17
2022-10-09T07:09:06.565Z,12.57
2022-10-09T07:11:36.133Z,16.10
2022-10-09T07:14:06.588Z,16.10
2022-10-09T07:16:37.117Z,17.58
2022-10-09T07:19:07.708Z,18.70
2022-10-09T07:21:36.020Z,21.20
2022-10-09T07:24:04.719Z,15.00
2022-10-09T07:26:34.070Z,14.18
2022-10-09T07:29:01.699Z,13.75
2022-10-09T07:31:29.543Z,21.48
2022-10-09T07:33:57.833Z,18.52
2022-10-09T07:36:25.079Z,14.85
2022-10-09T07:38:54.185Z,18.65
2022-10-09T07:41:22.711Z,23.38
2022-10-09T07:43:50.334Z,20.02
2022-10-09T07:46:20.459Z,14.73
2022-10-09T07:48:48.046Z,13.90
2022-10-09T07:51:23.803Z,15.98
2022-10-09T07:53:51.427Z,16.90
2022-10-09T07:56:21.337Z,19.75
2022-10-09T07:59:00.219Z,12.45
2022-10-09T08:01:28.490Z,16.77
2022-10-09T08:03:56.011Z,22.42
2022-10-09T08:06:24.373Z,18.45
2022-10-09T08:08:57.047Z,18.20
2022-10-09T08:11:31.339Z,16.65
2022-10-09T08:13:58.872Z,14.75
2022-10-09T08:16:27.429Z,16.05
2022-10-09T08:19:00.705Z,16.48
2022-10-09T08:21:28.710Z,18.45
2022-10-09T08:23:58.011Z,14.40
2022-10-09T08:26:27.143Z,17.65
2022-10-09T08:28:57.403Z,15.40
2022-10-09T08:31:25.472Z,11.93
2022-10-09T08:33:57.442Z,10.85
2022-10-09T08:36:25.387Z,18.02
2022-10-09T08:38:52.880Z,12.80
2022-10-09T08:41:40.359Z,17.88
2022-10-09T08:44:41.071Z,10.63
2022-10-09T08:47:19.920Z,8.75
2022-10-09T08:50:09.189Z,15.85
2022-10-09T08:52:55.975Z,11.82
2022-10-09T08:55:40.140Z,11.30
2022-10-09T08:58:14.259Z,10.18
2022-10-09T09:00:52.345Z,11.98
2022-10-09T09:04:02.211Z,9.40
2022-10-09T09:06:52.728Z,11.13
2022-10-09T09:09:22.665Z,12.18
2022-10-09T09:12:01.521Z,11.32
2022-10-09T09:14:46.947Z,11.43
2022-10-09T09:17:22.780Z,13.15
2022-10-09T09:20:20.580Z,12.02
2022-10-09T09:22:50.304Z,9.35
2022-10-09T09:25:24.070Z,12.45
2022-10-09T09:27:54.187Z,10.38
2022-10-09T09:30:28.352Z,15.85
2022-10-09T09:33:06.636Z,12.52
2022-10-09T09:35:56.057Z,10.63
2022-10-09T09:38:23.186Z,10.60
2022-10-09T09:40:50.974Z,17.67
2022-10-09T09:43:27.056Z,11.10
2022-10-09T09:45:56.254Z,13.70
2022-10-09T09:48:23.488Z,13.63
2022-10-09T09:51:10.220Z,13.23
2022-10-09T09:53:44.658Z,10.20
2022-10-09T09:56:12.179Z,12.13
2022-10-09T09:58:49.220Z,10.70
2022-10-09T10:01:31.047Z,12.68
2022-10-09T10:04:01.185Z,12.23
2022-10-09T10:06:33.966Z,8.15
2022-10-09T10:09:02.665Z,10.23
2022-10-09T10:11:31.801Z,9.57
2022-10-09T10:14:09.087Z,10.32
2022-10-09T10:16:39.259Z,10.00
2022-10-09T10:19:06.821Z,15.65
2022-10-09T10:22:04.453Z,16.98
2022-10-09T10:24:42.743Z,6.60
2022-10-09T10:27:31.048Z,8.90
2022-10-09T10:30:07.783Z,10.18
2022-10-09T10:33:17.036Z,9.30
2022-10-09T10:35:44.649Z,8.98
2022-10-09T10:38:32.692Z,7.53
2022-10-09T10:41:29.267Z,11.43
2022-10-09T10:44:07.901Z,5.63
2022-10-09T10:46:41.720Z,8.65
2022-10-09T10:49:14.005Z,6.50
2022-10-09T10:51:59.100Z,8.18
2022-10-09T10:54:46.593Z,10.43
2022-10-09T10:57:27.249Z,8.02
2022-10-09T11:00:07.253Z,6.32
2022-10-09T11:02:51.959Z,10.30
2022-10-09T11:05:50.385Z,8.98
2022-10-09T11:08:35.739Z,9.20
2022-10-09T11:11:09.763Z,8.02
2022-10-09T11:14:17.833Z,10.40
2022-10-09T11:17:02.261Z,8.15
2022-10-09T11:19:45.633Z,6.22
2022-10-09T11:22:31.424Z,13.13
2022-10-09T11:24:58.541Z,14.63
2022-10-09T11:27:34.485Z,5.68
2022-10-09T11:30:11.234Z,9.40
2022-10-09T11:32:53.534Z,9.80
2022-10-09T11:35:28.031Z,5.72
2022-10-09T11:38:14.574Z,6.65
2022-10-09T11:40:43.229Z,6.78
2022-10-09T11:43:25.199Z,6.20
2022-10-09T11:45:58.091Z,9.88
2022-10-09T11:48:39.590Z,8.02
2022-10-09T11:51:44.789Z,9.65
2022-10-09T11:54:16.465Z,6.30
2022-10-09T11:56:58.676Z,7.88
2022-10-09T11:59:30.735Z,8.25
2022-10-09T12:01:59.775Z,8.55
2022-10-09T12:04:53.537Z,9.52
2022-10-09T12:07:34.626Z,9.38
2022-10-09T12:10:21.557Z,7.80
2022-10-09T12:13:02.064Z,8.68
2022-10-09T12:15:59.602Z,7.40
2022-10-09T12:18:30.835Z,7.00
2022-10-09T12:21:01.668Z,12.15
2022-10-09T12:23:32.676Z,7.75
2022-10-09T12:26:01.761Z,6.88
2022-10-09T12:28:56.538Z,8.55
2022-10-09T12:31:32.763Z,9.93
2022-10-09T12:34:04.950Z,6.18
2022-10-09T12:36:32.526Z,6.97
2022-10-09T12:39:14.078Z,8.05
2022-10-09T12:41:44.287Z,7.05
2022-10-09T12:44:38.688Z,6.55
2022-10-09T12:47:13.151Z,5.57
2022-10-09T12:49:40.292Z,6.78
2022-10-09T12:52:15.849Z,6.43
2022-10-09T12:54:44.821Z,2.92
2022-10-09T12:57:16.742Z,5.47
2022-10-09T12:59:45.943Z,6.25
2022-10-09T13:02:17.238Z,5.07
2022-10-09T13:04:57.493Z,5.85
2022-10-09T13:07:27.701Z,5.00
2022-10-09T13:10:08.584Z,4.18
2022-10-09T13:12:35.894Z,4.03
2022-10-09T13:15:24.868Z,3.83
2022-10-09T13:17:52.057Z,7.28
2022-10-09T13:20:18.923Z,7.90
2022-10-09T13:23:00.298Z,5.68
2022-10-09T13:25:32.207Z,5.60
2022-10-09T13:27:59.104Z,6.00
2022-10-09T13:30:28.315Z,6.45
2022-10-09T13:32:55.298Z,5.18
2022-10-09T13:35:22.379Z,6.28
2022-10-09T13:37:49.758Z,5.93
2022-10-09T13:40:20.921Z,12.40
2022-10-09T13:42:56.506Z,4.00
2022-10-09T13:45:23.823Z,7.03
2022-10-09T13:47:51.246Z,8.05
2022-10-09T13:50:19.806Z,6.88
2022-10-09T13:52:46.934Z,6.60
2022-10-09T13:55:14.689Z,3.72
2022-10-09T13:57:41.809Z,5.72
2022-10-09T14:00:09.436Z,6.07
2022-10-09T14:02:36.546Z,5.82
2022-10-09T14:05:03.533Z,6.20
2022-10-09T14:07:30.572Z,4.50
2022-10-09T14:09:57.490Z,3.42
2022-10-09T14:12:24.395Z,3.63
2022-10-09T14:14:52.702Z,2.25
2022-10-09T14:17:19.769Z,4.20
2022-10-09T14:19:46.884Z,2.78
2022-10-09T14:22:14.750Z,4.20
2022-10-09T14:24:42.041Z,5.97
2022-10-09T14:27:09.015Z,5.80
2022-10-09T14:29:38.196Z,6.35
2022-10-09T14:32:06.003Z,3.47
2022-10-09T14:34:33.141Z,5.35
2022-10-09T14:37:00.146Z,5.95
2022-10-09T14:39:27.118Z,4.50
2022-10-09T14:41:54.153Z,2.88
2022-10-09T14:44:21.414Z,4.18
2022-10-09T14:46:48.727Z,6.57
2022-10-09T14:49:15.784Z,5.45
2022-10-09T14:51:42.804Z,1.85
2022-10-09T14:54:11.770Z,1.35
2022-10-09T14:56:38.714Z,4.72
2022-10-09T14:59:06.154Z,3.80
2022-10-09T15:01:34.457Z,5.05
2022-10-09T15:04:02.255Z,5.82
2022-10-09T15:06:29.416Z,3.97
2022-10-09T15:09:05.416Z,3.15
2022-10-09T15:11:34.181Z,2.35
2022-10-09T15:14:01.109Z,3.65
2022-10-09T15:16:27.972Z,5.45
2022-10-09T15:18:56.118Z,3.60
2022-10-09T15:21:29.574Z,4.75
2022-10-09T15:23:58.510Z,5.07
2022-10-09T15:26:26.981Z,3.88
2022-10-09T15:28:54.265Z,2.00
2022-10-09T15:31:28.534Z,3.45
2022-10-09T15:33:57.440Z,3.00
2022-10-09T15:36:24.883Z,4.85
2022-10-09T15:38:51.813Z,5.20
2022-10-09T15:41:31.566Z,1.98
2022-10-09T15:44:02.034Z,4.13
2022-10-09T15:46:29.842Z,5.97
2022-10-09T15:48:56.755Z,5.70
2022-10-09T15:51:24.878Z,2.05
2022-10-09T15:53:53.201Z,2.38
2022-10-09T15:56:23.672Z,5.13
2022-10-09T15:58:51.873Z,4.05
2022-10-09T16:01:19.316Z,4.35
2022-10-09T16:03:47.008Z,3.78
2022-10-09T16:06:17.226Z,3.67
2022-10-09T16:08:46.081Z,5.35
2022-10-09T16:11:14.838Z,4.75
2022-10-09T16:13:44.254Z,6.00
2022-10-09T16:16:19.023Z,4.80
2022-10-09T16:18:46.516Z,5.53
2022-10-09T16:21:15.979Z,6.35
2022-10-09T16:23:44.140Z,3.85
2022-10-09T16:26:13.817Z,6.20
2022-10-09T16:28:40.683Z,9.23
2022-10-09T16:31:09.023Z,6.70
2022-10-09T16:33:35.927Z,10.05
2022-10-09T16:36:12.838Z,6.80
2022-10-09T16:38:40.398Z,4.80
2022-10-09T16:41:09.605Z,8.13
2022-10-09T16:43:37.561Z,2.70
2022-10-09T16:46:21.827Z,7.15
2022-10-09T16:48:50.175Z,6.40
2022-10-09T16:51:21.169Z,6.70
2022-10-09T16:53:53.820Z,7.57
2022-10-09T16:56:23.901Z,6.57
2022-10-09T16:58:54.813Z,7.97
2022-10-09T17:01:22.125Z,12.73
2022-10-09T17:03:48.946Z,9.07
2022-10-09T17:06:23.826Z,6.97
2022-10-09T17:08:55.766Z,5.75
2022-10-09T17:11:24.618Z,10.65
2022-10-09T17:13:56.598Z,9.25
2022-10-09T17:16:26.459Z,8.63
2022-10-09T17:18:54.468Z,5.68
2022-10-09T17:21:21.554Z,12.00
2022-10-09T17:23:52.578Z,7.70
2022-10-09T17:26:20.842Z,5.93
2022-10-09T17:28:48.680Z,8.73
2022-10-09T17:31:18.761Z,8.32
2022-10-09T17:33:48.264Z,5.10
2022-10-09T17:36:18.731Z,5.43
2022-10-09T17:38:46.440Z,11.65
2022-10-09T17:41:15.405Z,6.18
2022-10-09T17:43:42.567Z,8.50
2022-10-09T17:46:10.091Z,8.90
2022-10-09T17:48:44.026Z,8.95
2022-10-09T17:51:15.486Z,7.38
2022-10-09T17:53:42.596Z,12.10
2022-10-09T17:56:10.458Z,10.25
2022-10-09T17:58:38.022Z,7.35
2022-10-09T18:01:07.397Z,9.75
2022-10-09T18:03:34.832Z,9.70
2022-10-09T18:06:05.346Z,8.20
2022-10-09T18:08:32.427Z,9.60
2022-10-09T18:11:07.960Z,6.13
2022-10-09T18:13:38.031Z,7.38
2022-10-09T18:16:07.315Z,7.88
2022-10-09T18:18:34.886Z,9.32
2022-10-09T18:21:08.236Z,7.75
2022-10-09T18:23:35.263Z,9.55
2022-10-09T18:26:07.367Z,9.93
2022-10-09T18:28:34.660Z,9.70
2022-10-09T18:31:13.910Z,8.70
2022-10-09T18:33:40.978Z,10.68
2022-10-09T18:36:14.016Z,6.07
2022-10-09T18:38:41.139Z,11.10
2022-10-09T18:41:09.084Z,8.18
2022-10-09T18:43:36.374Z,10.30
2022-10-09T18:46:03.687Z,9.48
2022-10-09T18:48:32.441Z,8.98
2022-10-09T18:51:00.550Z,12.90
2022-10-09T18:53:29.187Z,9.75
2022-10-09T18:55:56.084Z,10.25
2022-10-09T18:58:23.177Z,12.70
2022-10-09T19:00:50.137Z,6.47
2022-10-09T19:03:17.080Z,7.47
2022-10-09T19:05:45.130Z,5.60
2022-10-09T19:08:12.030Z,9.63
2022-10-09T19:10:38.981Z,11.13
2022-10-09T19:13:05.989Z,7.25
2022-10-09T19:15:32.787Z,10.10
2022-10-09T19:17:59.737Z,7.65
2022-10-09T19:20:28.952Z,8.00
2022-10-09T19:22:55.733Z,9.85
2022-10-09T19:25:22.689Z,10.88
2022-10-09T19:27:49.875Z,5.90
2022-10-09T19:30:17.643Z,5.63
2022-10-09T19:32:44.630Z,11.38
2022-10-09T19:35:11.464Z,13.35
2022-10-09T19:37:38.308Z,12.32
2022-10-09T19:40:05.818Z,8.55
2022-10-09T19:42:32.774Z,12.57
2022-10-09T19:44:59.746Z,12.55
2022-10-09T19:47:26.644Z,8.50
2022-10-09T19:49:53.441Z,8.20
2022-10-09T19:52:20.382Z,9.45
2022-10-09T19:54:47.342Z,10.07
2022-10-09T19:57:14.312Z,6.55
2022-10-09T19:59:41.620Z,6.60
2022-10-09T20:02:08.786Z,10.55
2022-10-09T20:04:35.620Z,12.90
2022-10-09T20:07:02.566Z,6.93
2022-10-09T20:09:29.844Z,8.77
2022-10-09T20:11:56.890Z,7.30
2022-10-09T20:14:25.382Z,8.80
2022-10-09T20:16:52.420Z,14.18
2022-10-09T20:19:19.581Z,11.02
2022-10-09T20:21:46.659Z,7.25
2022-10-09T20:24:13.555Z,10.32
2022-10-09T20:26:43.136Z,11.20
2022-10-09T20:29:10.166Z,7.68
2022-10-09T20:31:37.049Z,7.47
2022-10-09T20:34:03.990Z,8.35
2022-10-09T20:36:35.515Z,9.48
2022-10-09T20:39:06.131Z,8.18
2022-10-09T20:41:33.352Z,13.32
2022-10-09T20:44:01.831Z,10.40
2022-10-09T20:46:30.716Z,8.00
2022-10-09T20:48:58.078Z,11.40
2022-10-09T20:51:25.626Z,11.65
2022-10-09T20:53:55.971Z,6.88
2022-10-09T20:56:24.706Z,6.45
2022-10-09T20:58:51.866Z,8.00
2022-10-09T21:01:19.718Z,7.05
2022-10-09T21:03:47.195Z,6.85
2022-10-09T21:06:17.453Z,10.05
2022-10-09T21:08:44.510Z,6.15
2022-10-09T21:11:16.767Z,8.30
2022-10-09T21:13:44.977Z,5.85
2022-10-09T21:16:14.960Z,11.93
2022-10-09T21:18:42.140Z,8.85
2022-10-09T21:21:12.900Z,7.03
2022-10-09T21:23:40.626Z,8.43
2022-10-09T21:26:12.657Z,7.97
2022-10-09T21:28:40.256Z,8.02
2022-10-09T21:31:13.134Z,9.15
2022-10-09T21:33:40.020Z,9.82
2022-10-09T21:36:17.815Z,13.57
2022-10-09T21:38:44.744Z,8.48
2022-10-09T21:41:11.501Z,6.57
2022-10-09T21:43:38.519Z,10.73
2022-10-09T21:46:05.537Z,8.75
2022-10-09T21:48:32.502Z,10.15
2022-10-09T21:50:59.367Z,9.75
2022-10-09T21:53:26.400Z,5.85
2022-10-09T21:55:53.464Z,7.93
2022-10-09T21:58:20.649Z,9.18
2022-10-09T22:00:55.647Z,7.82
2022-10-09T22:03:25.551Z,6.70
2022-10-09T22:05:52.704Z,8.73
2022-10-09T22:08:20.070Z,11.23
2022-10-09T22:10:48.059Z,6.53
2022-10-09T22:13:15.261Z,8.60
2022-10-09T22:15:43.322Z,6.75
2022-10-09T22:18:12.566Z,5.50
2022-10-09T22:20:45.085Z,6.55
2022-10-09T22:23:13.731Z,7.47
2022-10-09T22:25:40.490Z,9.05
2022-10-09T22:28:07.853Z,10.63
2022-10-09T22:30:36.008Z,18.17
2022-10-09T22:33:02.965Z,39.92
2022-10-09T22:35:29.953Z,23.88
2022-10-09T22:37:57.571Z,22.90
2022-10-09T22:40:24.483Z,24.80
2022-10-09T22:42:51.900Z,29.17
2022-10-09T22:45:19.476Z,27.33
2022-10-09T22:47:49.328Z,27.92
2022-10-09T22:50:16.490Z,23.05
2022-10-09T22:52:43.459Z,20.13
2022-10-09T22:55:10.488Z,18.98
2022-10-09T22:57:37.435Z,18.30
2022-10-09T23:00:05.715Z,16.88
2022-10-09T23:02:32.744Z,15.93
2022-10-09T23:04:59.665Z,16.17
2022-10-09T23:07:26.862Z,12.05
2022-10-09T23:09:54.203Z,14.00
2022-10-09T23:12:21.286Z,12.50
2022-10-09T23:14:48.348Z,10.07
2022-10-09T23:17:15.178Z,11.25
2022-10-09T23:19:42.184Z,7.82
2022-10-09T23:22:09.386Z,9.30
2022-10-09T23:24:36.489Z,7.72
2022-10-09T23:27:03.551Z,7.45
2022-10-09T23:29:31.814Z,11.80
2022-10-09T23:31:58.693Z,7.00
2022-10-09T23:34:25.535Z,8.70
2022-10-09T23:36:52.348Z,9.77
2022-10-09T23:39:19.462Z,9.25
2022-10-09T23:41:46.487Z,7.57
2022-10-09T23:44:13.327Z,6.93
2022-10-09T23:46:40.446Z,7.38
2022-10-09T23:49:07.380Z,9.95
2022-10-09T23:51:34.238Z,10.05
2022-10-09T23:54:01.245Z,8.43
2022-10-09T23:56:31.312Z,10.00
2022-10-09T23:58:59.820Z,9.73
